KCRW/CRW METAR and TAF weather

Enter ICAO airport designator
Station Type Date Time Source
KCRW METAR 2019/12/11 16:54 UTC NOAA

KCRW 111654Z VRB05G16KT 10SM SCT035 M01/M09 A3048 RMK AO2 SLP331 T10111094 $


Station Type Date Time Source
KCRW Decoded METAR 2019/12/11 16:54 UTC NOAA

YEAGER AIRPORT, WV, United States (KCRW) 38-22N 081-36W 309M
Dec 11, 2019 - 11:54 AM EST / 2019.12.11 1654 UTC
Wind: Variable at 6 MPH (5 KT) gusting to 18 MPH (16 KT):0
Visibility: 10 mile(s):0
Sky conditions: partly cloudy
Temperature: 30.0 F (-1.1 C)
Windchill: 23 F (-5 C):1
Dew Point: 15.1 F (-9.4 C)
Relative Humidity: 53%
Pressure (altimeter): 30.48 in. Hg (1032 hPa)
ob: KCRW 111654Z VRB05G16KT 10SM SCT035 M01/M09 A3048 RMK AO2 SLP331 T10111094
cycle: 17

Station Type Date Time Source
KCRW TAF 2019/12/11 18:22 UTC NOAA

TAF KCRW 111720Z 1118/1218 25005KT P6SM FEW250
FM111900 25005KT P6SM FEW070
FM120000 VRB03KT P6SM SKC

Example: see airport list